sensor_id;sensor_type;location;lat;lon;timestamp;pressure;altitude;pressure_sealevel;temperature;humidity
59009;BME280;44794;42.652;23.318;2022-11-15T00:01:33;94961.66;;;2.64;100.00
59009;BME280;44794;42.652;23.318;2022-11-15T00:03:59;94965.94;;;2.64;100.00
59009;BME280;44794;42.652;23.318;2022-11-15T00:06:24;94965.16;;;2.62;100.00
59009;BME280;44794;42.652;23.318;2022-11-15T00:08:49;94966.91;;;2.61;100.00
59009;BME280;44794;42.652;23.318;2022-11-15T00:11:15;94965.34;;;2.57;100.00
59009;BME280;44794;42.652;23.318;2022-11-15T00:13:40;94965.53;;;2.53;100.00
59009;BME280;44794;42.652;23.318;2022-11-15T00:16:06;94961.28;;;2.52;100.00
59009;BME280;44794;42.652;23.318;2022-11-15T00:18:32;94966.34;;;2.53;100.00
59009;BME280;44794;42.652;23.318;2022-11-15T00:21:04;94964.56;;;2.55;100.00
59009;BME280;44794;42.652;23.318;2022-11-15T00:23:30;94954.31;;;2.55;100.00
59009;BME280;44794;42.652;23.318;2022-11-15T00:25:56;94955.94;;;2.58;100.00
59009;BME280;44794;42.652;23.318;2022-11-15T00:28:22;94949.84;;;2.60;100.00
59009;BME280;44794;42.652;23.318;2022-11-15T00:30:48;94947.34;;;2.59;100.00
59009;BME280;44794;42.652;23.318;2022-11-15T00:33:13;94946.56;;;2.57;100.00
59009;BME280;44794;42.652;23.318;2022-11-15T00:35:39;94938.28;;;2.50;100.00
59009;BME280;44794;42.652;23.318;2022-11-15T00:38:04;94943.63;;;2.44;100.00
59009;BME280;44794;42.652;23.318;2022-11-15T00:40:30;94937.84;;;2.39;100.00
59009;BME280;44794;42.652;23.318;2022-11-15T00:42:55;94937.97;;;2.36;100.00
59009;BME280;44794;42.652;23.318;2022-11-15T00:45:21;94938.78;;;2.37;100.00
59009;BME280;44794;42.652;23.318;2022-11-15T00:47:47;94941.25;;;2.40;100.00
59009;BME280;44794;42.652;23.318;2022-11-15T00:50:13;94947.19;;;2.40;100.00
59009;BME280;44794;42.652;23.318;2022-11-15T00:52:38;94945.44;;;2.41;100.00
59009;BME280;44794;42.652;23.318;2022-11-15T00:55:04;94933.59;;;2.38;100.00
59009;BME280;44794;42.652;23.318;2022-11-15T00:57:30;94928.38;;;2.41;100.00
59009;BME280;44794;42.652;23.318;2022-11-15T00:59:55;94928.38;;;2.41;100.00
59009;BME280;44794;42.652;23.318;2022-11-15T01:02:21;94925.03;;;2.39;100.00
59009;BME280;44794;42.652;23.318;2022-11-15T01:04:46;94925.91;;;2.38;100.00
59009;BME280;44794;42.652;23.318;2022-11-15T01:07:12;94928.53;;;2.37;100.00
59009;BME280;44794;42.652;23.318;2022-11-15T01:09:38;94930.31;;;2.35;100.00
59009;BME280;44794;42.652;23.318;2022-11-15T01:12:03;94924.22;;;2.37;100.00
59009;BME280;44794;42.652;23.318;2022-11-15T01:14:29;94925.91;;;2.38;100.00
59009;BME280;44794;42.652;23.318;2022-11-15T01:16:54;94927.66;;;2.38;100.00
59009;BME280;44794;42.652;23.318;2022-11-15T01:19:20;94922.47;;;2.39;100.00
59009;BME280;44794;42.652;23.318;2022-11-15T01:21:48;94924.19;;;2.39;100.00
59009;BME280;44794;42.652;23.318;2022-11-15T01:24:14;94918.34;;;2.35;100.00
59009;BME280;44794;42.652;23.318;2022-11-15T01:26:40;94918.34;;;2.35;100.00
59009;BME280;44794;42.652;23.318;2022-11-15T01:29:05;94913.22;;;2.35;100.00
59009;BME280;44794;42.652;23.318;2022-11-15T01:31:31;94916.63;;;2.36;100.00
59009;BME280;44794;42.652;23.318;2022-11-15T01:33:56;94914.78;;;2.39;100.00
59009;BME280;44794;42.652;23.318;2022-11-15T01:36:22;94920.63;;;2.43;100.00
59009;BME280;44794;42.652;23.318;2022-11-15T01:38:53;94915.38;;;2.46;100.00
59009;BME280;44794;42.652;23.318;2022-11-15T01:41:22;94911.09;;;2.46;100.00
59009;BME280;44794;42.652;23.318;2022-11-15T01:46:51;94913.72;;;2.45;100.00
59009;BME280;44794;42.652;23.318;2022-11-15T01:49:19;94914.66;;;2.42;100.00
59009;BME280;44794;42.652;23.318;2022-11-15T01:51:46;94919.25;;;2.34;100.00
59009;BME280;44794;42.652;23.318;2022-11-15T01:54:15;94911.78;;;2.28;100.00
59009;BME280;44794;42.652;23.318;2022-11-15T01:56:48;94904.13;;;2.27;100.00
59009;BME280;44794;42.652;23.318;2022-11-15T01:59:16;94904.84;;;2.30;100.00
59009;BME280;44794;42.652;23.318;2022-11-15T02:01:42;94911.56;;;2.34;100.00
59009;BME280;44794;42.652;23.318;2022-11-15T02:04:13;94908.28;;;2.31;100.00
59009;BME280;44794;42.652;23.318;2022-11-15T02:06:41;94910.22;;;2.24;100.00
59009;BME280;44794;42.652;23.318;2022-11-15T02:09:07;94910.22;;;2.24;100.00
59009;BME280;44794;42.652;23.318;2022-11-15T02:11:33;94901.78;;;2.22;100.00
59009;BME280;44794;42.652;23.318;2022-11-15T02:13:59;94907.00;;;2.20;100.00
59009;BME280;44794;42.652;23.318;2022-11-15T02:16:35;94903.66;;;2.18;100.00
59009;BME280;44794;42.652;23.318;2022-11-15T02:22:01;94908.75;;;2.19;100.00
59009;BME280;44794;42.652;23.318;2022-11-15T02:27:38;94899.53;;;2.14;100.00
59009;BME280;44794;42.652;23.318;2022-11-15T02:30:20;94897.72;;;2.17;100.00
59009;BME280;44794;42.652;23.318;2022-11-15T02:32:54;94898.44;;;2.21;100.00
59009;BME280;44794;42.652;23.318;2022-11-15T02:35:35;94894.97;;;2.22;100.00
59009;BME280;44794;42.652;23.318;2022-11-15T02:38:17;94890.56;;;2.25;100.00
59009;BME280;44794;42.652;23.318;2022-11-15T02:43:29;94896.41;;;2.28;100.00
59009;BME280;44794;42.652;23.318;2022-11-15T02:46:21;94897.97;;;2.32;100.00
59009;BME280;44794;42.652;23.318;2022-11-15T02:49:11;94887.47;;;2.38;100.00
59009;BME280;44794;42.652;23.318;2022-11-15T02:51:38;94889.78;;;2.44;100.00
59009;BME280;44794;42.652;23.318;2022-11-15T02:54:04;94897.28;;;2.50;100.00
59009;BME280;44794;42.652;23.318;2022-11-15T02:56:30;94894.50;;;2.55;100.00
59009;BME280;44794;42.652;23.318;2022-11-15T03:07:19;94901.75;;;2.67;100.00
59009;BME280;44794;42.652;23.318;2022-11-15T03:10:12;94906.69;;;2.71;100.00
59009;BME280;44794;42.652;23.318;2022-11-15T03:15:32;94895.06;;;2.84;100.00
59009;BME280;44794;42.652;23.318;2022-11-15T03:18:13;94897.25;;;2.93;100.00
59009;BME280;44794;42.652;23.318;2022-11-15T03:20:42;94897.84;;;2.99;100.00
59009;BME280;44794;42.652;23.318;2022-11-15T03:23:09;94891.75;;;3.02;100.00
59009;BME280;44794;42.652;23.318;2022-11-15T03:25:38;94882.13;;;3.07;100.00
59009;BME280;44794;42.652;23.318;2022-11-15T03:28:07;94887.94;;;3.12;100.00
59009;BME280;44794;42.652;23.318;2022-11-15T03:30:36;94886.81;;;3.17;100.00
59009;BME280;44794;42.652;23.318;2022-11-15T03:33:03;94890.75;;;3.26;100.00
59009;BME280;44794;42.652;23.318;2022-11-15T03:35:39;94880.06;;;3.36;100.00
59009;BME280;44794;42.652;23.318;2022-11-15T03:43:38;94882.78;;;3.52;100.00
59009;BME280;44794;42.652;23.318;2022-11-15T03:46:13;94876.84;;;3.51;100.00
59009;BME280;44794;42.652;23.318;2022-11-15T03:48:43;94864.63;;;3.56;100.00
59009;BME280;44794;42.652;23.318;2022-11-15T03:51:13;94879.19;;;3.56;100.00
59009;BME280;44794;42.652;23.318;2022-11-15T03:53:38;94874.81;;;3.58;100.00
59009;BME280;44794;42.652;23.318;2022-11-15T03:56:05;94870.53;;;3.58;100.00
59009;BME280;44794;42.652;23.318;2022-11-15T03:58:31;94870.31;;;3.63;100.00
59009;BME280;44794;42.652;23.318;2022-11-15T04:00:56;94869.13;;;3.71;100.00
59009;BME280;44794;42.652;23.318;2022-11-15T04:03:22;94870.50;;;3.78;100.00
59009;BME280;44794;42.652;23.318;2022-11-15T04:05:47;94862.63;;;3.82;100.00
59009;BME280;44794;42.652;23.318;2022-11-15T04:08:13;94870.94;;;3.87;100.00
59009;BME280;44794;42.652;23.318;2022-11-15T04:10:38;94869.16;;;3.89;100.00
59009;BME280;44794;42.652;23.318;2022-11-15T04:13:04;94873.34;;;3.90;100.00
59009;BME280;44794;42.652;23.318;2022-11-15T04:15:29;94866.06;;;3.81;100.00
59009;BME280;44794;42.652;23.318;2022-11-15T04:17:56;94865.09;;;3.84;100.00
59009;BME280;44794;42.652;23.318;2022-11-15T04:20:30;94867.75;;;3.82;100.00
59009;BME280;44794;42.652;23.318;2022-11-15T04:23:22;94857.59;;;3.79;100.00
59009;BME280;44794;42.652;23.318;2022-11-15T04:26:10;94858.66;;;3.75;100.00
59009;BME280;44794;42.652;23.318;2022-11-15T04:28:37;94862.63;;;3.82;100.00
59009;BME280;44794;42.652;23.318;2022-11-15T04:31:23;94857.19;;;3.88;100.00
59009;BME280;44794;42.652;23.318;2022-11-15T04:33:48;94861.22;;;3.94;100.00
59009;BME280;44794;42.652;23.318;2022-11-15T04:36:14;94861.16;;;3.95;100.00
59009;BME280;44794;42.652;23.318;2022-11-15T04:38:58;94855.38;;;3.90;100.00
59009;BME280;44794;42.652;23.318;2022-11-15T04:41:23;94855.53;;;3.87;100.00
59009;BME280;44794;42.652;23.318;2022-11-15T04:43:49;94857.59;;;3.79;100.00
59009;BME280;44794;42.652;23.318;2022-11-15T04:46:14;94858.88;;;3.69;100.00
59009;BME280;44794;42.652;23.318;2022-11-15T04:48:39;94854.78;;;3.66;100.00
59009;BME280;44794;42.652;23.318;2022-11-15T04:51:05;94852.22;;;3.66;100.00
59009;BME280;44794;42.652;23.318;2022-11-15T04:53:30;94847.66;;;3.72;100.00
59009;BME280;44794;42.652;23.318;2022-11-15T04:55:56;94854.91;;;3.63;100.00
59009;BME280;44794;42.652;23.318;2022-11-15T04:58:21;94846.00;;;3.71;100.00
59009;BME280;44794;42.652;23.318;2022-11-15T05:00:47;94851.19;;;3.69;100.00
59009;BME280;44794;42.652;23.318;2022-11-15T05:03:12;94849.53;;;3.69;100.00
59009;BME280;44794;42.652;23.318;2022-11-15T05:05:57;94846.97;;;3.69;100.00
59009;BME280;44794;42.652;23.318;2022-11-15T05:08:23;94857.72;;;3.76;100.00
59009;BME280;44794;42.652;23.318;2022-11-15T05:10:48;94854.91;;;3.82;100.00
59009;BME280;44794;42.652;23.318;2022-11-15T05:13:13;94849.81;;;3.81;100.00
59009;BME280;44794;42.652;23.318;2022-11-15T05:15:39;94848.84;;;3.83;100.00
59009;BME280;44794;42.652;23.318;2022-11-15T05:18:04;94850.50;;;3.84;100.00
59009;BME280;44794;42.652;23.318;2022-11-15T05:20:30;94849.81;;;3.81;100.00
59009;BME280;44794;42.652;23.318;2022-11-15T05:22:55;94853.91;;;3.67;100.00
59009;BME280;44794;42.652;23.318;2022-11-15T05:25:21;94849.72;;;3.64;100.00
59009;BME280;44794;42.652;23.318;2022-11-15T05:27:47;94854.41;;;3.74;100.00
59009;BME280;44794;42.652;23.318;2022-11-15T05:30:13;94854.25;;;3.77;100.00
59009;BME280;44794;42.652;23.318;2022-11-15T05:32:39;94870.97;;;3.68;100.00
59009;BME280;44794;42.652;23.318;2022-11-15T05:35:06;94876.84;;;3.51;100.00
59009;BME280;44794;42.652;23.318;2022-11-15T05:37:34;94878.44;;;3.54;100.00
59009;BME280;44794;42.652;23.318;2022-11-15T05:39:59;94880.78;;;3.38;100.00
59009;BME280;44794;42.652;23.318;2022-11-15T05:42:25;94884.06;;;3.22;100.00
59009;BME280;44794;42.652;23.318;2022-11-15T05:44:51;94886.44;;;3.26;100.00
59009;BME280;44794;42.652;23.318;2022-11-15T05:47:22;94880.09;;;3.35;100.00
59009;BME280;44794;42.652;23.318;2022-11-15T05:49:49;94873.56;;;3.48;100.00
59009;BME280;44794;42.652;23.318;2022-11-15T05:52:20;94873.16;;;3.57;100.00
59009;BME280;44794;42.652;23.318;2022-11-15T05:54:46;94874.56;;;3.64;100.00
59009;BME280;44794;42.652;23.318;2022-11-15T05:57:12;94874.06;;;3.75;100.00
59009;BME280;44794;42.652;23.318;2022-11-15T05:59:38;94874.69;;;3.80;100.00
59009;BME280;44794;42.652;23.318;2022-11-15T06:02:05;94879.66;;;3.83;100.00
59009;BME280;44794;42.652;23.318;2022-11-15T06:04:31;94870.78;;;3.72;100.00
59009;BME280;44794;42.652;23.318;2022-11-15T06:06:58;94882.66;;;3.74;100.00
59009;BME280;44794;42.652;23.318;2022-11-15T06:09:23;94882.66;;;3.74;100.00
59009;BME280;44794;42.652;23.318;2022-11-15T06:11:49;94884.78;;;3.83;100.00
59009;BME280;44794;42.652;23.318;2022-11-15T06:14:14;94886.47;;;3.84;100.00
59009;BME280;44794;42.652;23.318;2022-11-15T06:16:40;94890.31;;;3.94;100.00
59009;BME280;44794;42.652;23.318;2022-11-15T06:19:06;94894.59;;;3.94;100.00
59009;BME280;44794;42.652;23.318;2022-11-15T06:21:32;94893.09;;;3.90;100.00
59009;BME280;44794;42.652;23.318;2022-11-15T06:23:58;94889.69;;;3.89;100.00
59009;BME280;44794;42.652;23.318;2022-11-15T06:26:23;94890.41;;;3.93;100.00
59009;BME280;44794;42.652;23.318;2022-11-15T06:28:49;94883.38;;;3.96;100.00
59009;BME280;44794;42.652;23.318;2022-11-15T06:31:14;94873.84;;;3.98;100.00
59009;BME280;44794;42.652;23.318;2022-11-15T06:33:41;94868.03;;;4.13;100.00
59009;BME280;44794;42.652;23.318;2022-11-15T06:36:10;94868.16;;;4.29;100.00
59009;BME280;44794;42.652;23.318;2022-11-15T06:38:39;94866.38;;;4.49;100.00
59009;BME280;44794;42.652;23.318;2022-11-15T06:41:09;94861.50;;;4.61;100.00
59009;BME280;44794;42.652;23.318;2022-11-15T06:43:35;94856.19;;;4.64;100.00
59009;BME280;44794;42.652;23.318;2022-11-15T06:46:02;94853.09;;;4.75;100.00
59009;BME280;44794;42.652;23.318;2022-11-15T06:48:29;94859.41;;;4.86;100.00
59009;BME280;44794;42.652;23.318;2022-11-15T06:50:57;94860.31;;;4.85;100.00
59009;BME280;44794;42.652;23.318;2022-11-15T06:53:23;94882.28;;;4.57;100.00
59009;BME280;44794;42.652;23.318;2022-11-15T06:55:49;94884.22;;;4.52;100.00
59009;BME280;44794;42.652;23.318;2022-11-15T06:58:15;94893.03;;;4.65;100.00
59009;BME280;44794;42.652;23.318;2022-11-15T07:00:41;94878.69;;;4.78;100.00
59009;BME280;44794;42.652;23.318;2022-11-15T07:03:07;94879.91;;;4.88;100.00
59009;BME280;44794;42.652;23.318;2022-11-15T07:05:33;94877.97;;;4.93;100.00
59009;BME280;44794;42.652;23.318;2022-11-15T07:07:58;94876.00;;;4.98;100.00
59009;BME280;44794;42.652;23.318;2022-11-15T07:10:25;94880.66;;;4.73;100.00
59009;BME280;44794;42.652;23.318;2022-11-15T07:12:51;94871.75;;;4.80;100.00
59009;BME280;44794;42.652;23.318;2022-11-15T07:15:18;94869.50;;;4.91;100.00
59009;BME280;44794;42.652;23.318;2022-11-15T07:17:44;94869.44;;;4.74;100.00
59009;BME280;44794;42.652;23.318;2022-11-15T07:20:13;94861.91;;;4.88;100.00
59009;BME280;44794;42.652;23.318;2022-11-15T07:22:40;94870.13;;;4.77;100.00
59009;BME280;44794;42.652;23.318;2022-11-15T07:25:06;94876.34;;;4.73;100.00
59009;BME280;44794;42.652;23.318;2022-11-15T07:27:32;94879.47;;;4.80;100.00
59009;BME280;44794;42.652;23.318;2022-11-15T07:29:57;94875.75;;;4.85;100.00
59009;BME280;44794;42.652;23.318;2022-11-15T07:32:23;94881.44;;;4.92;100.00
59009;BME280;44794;42.652;23.318;2022-11-15T07:34:48;94902.19;;;4.70;100.00
59009;BME280;44794;42.652;23.318;2022-11-15T07:37:14;94897.00;;;4.72;100.00
59009;BME280;44794;42.652;23.318;2022-11-15T07:39:39;94892.94;;;4.85;100.00
59009;BME280;44794;42.652;23.318;2022-11-15T07:42:05;94894.41;;;4.90;100.00
59009;BME280;44794;42.652;23.318;2022-11-15T07:44:53;94883.22;;;5.08;100.00
59009;BME280;44794;42.652;23.318;2022-11-15T07:47:19;94890.41;;;5.18;100.00
59009;BME280;44794;42.652;23.318;2022-11-15T07:49:44;94881.91;;;5.17;100.00
59009;BME280;44794;42.652;23.318;2022-11-15T07:52:12;94888.16;;;5.29;100.00
59009;BME280;44794;42.652;23.318;2022-11-15T07:54:37;94877.63;;;5.51;99.81
59009;BME280;44794;42.652;23.318;2022-11-15T07:57:04;94885.56;;;5.46;99.47
59009;BME280;44794;42.652;23.318;2022-11-15T07:59:30;94896.78;;;5.28;98.88
59009;BME280;44794;42.652;23.318;2022-11-15T08:01:55;94896.78;;;5.28;98.15
59009;BME280;44794;42.652;23.318;2022-11-15T08:04:21;94901.19;;;5.43;97.92
59009;BME280;44794;42.652;23.318;2022-11-15T08:06:46;94889.38;;;5.56;98.05
59009;BME280;44794;42.652;23.318;2022-11-15T08:09:12;94885.03;;;5.74;98.14
59009;BME280;44794;42.652;23.318;2022-11-15T08:11:37;94887.84;;;5.86;97.34
59009;BME280;44794;42.652;23.318;2022-11-15T08:14:03;94899.94;;;6.01;96.93
59009;BME280;44794;42.652;23.318;2022-11-15T08:16:28;94906.78;;;6.17;95.90
59009;BME280;44794;42.652;23.318;2022-11-15T08:18:54;94911.47;;;6.26;94.64
59009;BME280;44794;42.652;23.318;2022-11-15T08:21:20;94914.63;;;6.31;93.61
59009;BME280;44794;42.652;23.318;2022-11-15T08:23:46;94930.63;;;6.38;92.75
59009;BME280;44794;42.652;23.318;2022-11-15T08:26:11;94918.75;;;6.51;92.23
59009;BME280;44794;42.652;23.318;2022-11-15T08:28:37;94928.94;;;6.54;91.21
59009;BME280;44794;42.652;23.318;2022-11-15T08:31:03;94937.25;;;6.59;89.92
59009;BME280;44794;42.652;23.318;2022-11-15T08:33:30;94943.50;;;6.55;88.82
59009;BME280;44794;42.652;23.318;2022-11-15T08:35:59;94945.56;;;6.64;88.81
59009;BME280;44794;42.652;23.318;2022-11-15T08:38:25;94934.50;;;6.62;88.91
59009;BME280;44794;42.652;23.318;2022-11-15T08:40:53;94932.19;;;6.72;88.83
59009;BME280;44794;42.652;23.318;2022-11-15T08:43:23;94933.75;;;6.90;88.83
59009;BME280;44794;42.652;23.318;2022-11-15T08:45:49;94942.84;;;6.97;87.82
59009;BME280;44794;42.652;23.318;2022-11-15T08:48:14;94932.34;;;7.16;87.33
59009;BME280;44794;42.652;23.318;2022-11-15T08:50:39;94931.16;;;7.21;86.57
59009;BME280;44794;42.652;23.318;2022-11-15T08:53:07;94941.16;;;6.81;85.73
59009;BME280;44794;42.652;23.318;2022-11-15T08:55:36;94925.84;;;6.63;87.40
59009;BME280;44794;42.652;23.318;2022-11-15T08:58:02;94928.03;;;6.85;87.68
59009;BME280;44794;42.652;23.318;2022-11-15T09:00:27;94920.69;;;7.09;87.11
59009;BME280;44794;42.652;23.318;2022-11-15T09:02:53;94922.66;;;7.19;86.60
59009;BME280;44794;42.652;23.318;2022-11-15T09:05:18;94922.31;;;7.25;85.92
59009;BME280;44794;42.652;23.318;2022-11-15T09:07:44;94927.94;;;7.47;84.85
59009;BME280;44794;42.652;23.318;2022-11-15T09:10:09;94924.41;;;7.63;83.85
59009;BME280;44794;42.652;23.318;2022-11-15T09:12:34;94922.03;;;7.74;82.90
59009;BME280;44794;42.652;23.318;2022-11-15T09:15:00;94926.38;;;7.74;81.77
59009;BME280;44794;42.652;23.318;2022-11-15T09:17:25;94922.19;;;7.87;81.86
59009;BME280;44794;42.652;23.318;2022-11-15T09:19:51;94922.84;;;7.90;81.47
59009;BME280;44794;42.652;23.318;2022-11-15T09:22:16;94925.41;;;7.90;80.93
59009;BME280;44794;42.652;23.318;2022-11-15T09:24:42;94919.91;;;8.10;80.31
59009;BME280;44794;42.652;23.318;2022-11-15T09:27:07;94917.13;;;8.13;80.04
59009;BME280;44794;42.652;23.318;2022-11-15T09:29:33;94920.00;;;8.22;80.31
59009;BME280;44794;42.652;23.318;2022-11-15T09:31:59;94924.66;;;8.31;79.85
59009;BME280;44794;42.652;23.318;2022-11-15T09:34:24;94920.56;;;8.14;79.51
59009;BME280;44794;42.652;23.318;2022-11-15T09:36:49;94915.69;;;8.23;79.17
59009;BME280;44794;42.652;23.318;2022-11-15T09:39:15;94924.97;;;8.12;78.78
59009;BME280;44794;42.652;23.318;2022-11-15T09:41:50;94911.22;;;7.68;79.46
59009;BME280;44794;42.652;23.318;2022-11-15T09:50:39;94893.22;;;7.66;80.24
59009;BME280;44794;42.652;23.318;2022-11-15T09:53:17;94897.56;;;7.66;80.48
59009;BME280;44794;42.652;23.318;2022-11-15T09:55:57;94890.38;;;7.71;80.53
59009;BME280;44794;42.652;23.318;2022-11-15T09:59:00;94886.13;;;7.70;80.67
59009;BME280;44794;42.652;23.318;2022-11-15T10:04:26;94886.50;;;8.35;79.70
59009;BME280;44794;42.652;23.318;2022-11-15T10:09:35;94880.22;;;8.53;77.78
59009;BME280;44794;42.652;23.318;2022-11-15T10:12:03;94878.06;;;8.31;78.31
59009;BME280;44794;42.652;23.318;2022-11-15T10:14:30;94863.78;;;7.83;79.63
59009;BME280;44794;42.652;23.318;2022-11-15T10:25:16;94858.75;;;8.51;78.57
59009;BME280;44794;42.652;23.318;2022-11-15T10:27:43;94851.78;;;8.65;78.12
59009;BME280;44794;42.652;23.318;2022-11-15T10:30:16;94851.78;;;8.65;77.88
59009;BME280;44794;42.652;23.318;2022-11-15T10:32:43;94848.63;;;8.74;77.39
59009;BME280;44794;42.652;23.318;2022-11-15T10:35:39;94838.84;;;8.65;77.60
59009;BME280;44794;42.652;23.318;2022-11-15T10:38:09;94833.13;;;8.60;77.78
59009;BME280;44794;42.652;23.318;2022-11-15T10:40:36;94831.72;;;8.28;78.53
59009;BME280;44794;42.652;23.318;2022-11-15T10:45:36;94808.69;;;7.68;80.88
59009;BME280;44794;42.652;23.318;2022-11-15T10:50:37;94796.94;;;7.63;81.12
59009;BME280;44794;42.652;23.318;2022-11-15T10:53:03;94794.47;;;7.61;80.82
59009;BME280;44794;42.652;23.318;2022-11-15T10:55:32;94797.84;;;7.62;81.08
59009;BME280;44794;42.652;23.318;2022-11-15T11:00:52;94788.19;;;7.79;80.60
59009;BME280;44794;42.652;23.318;2022-11-15T11:03:35;94782.19;;;7.93;80.62
59009;BME280;44794;42.652;23.318;2022-11-15T11:06:06;94773.50;;;8.08;80.04
59009;BME280;44794;42.652;23.318;2022-11-15T11:08:32;94770.09;;;8.21;79.11
59009;BME280;44794;42.652;23.318;2022-11-15T11:11:00;94776.72;;;8.39;78.45
59009;BME280;44794;42.652;23.318;2022-11-15T11:13:32;94780.66;;;8.44;77.65
59009;BME280;44794;42.652;23.318;2022-11-15T11:18:57;94777.84;;;8.61;76.81
59009;BME280;44794;42.652;23.318;2022-11-15T11:21:41;94770.63;;;8.66;76.29
59009;BME280;44794;42.652;23.318;2022-11-15T11:27:16;94761.25;;;8.78;75.17
59009;BME280;44794;42.652;23.318;2022-11-15T11:35:17;94753.03;;;8.71;75.15
59009;BME280;44794;42.652;23.318;2022-11-15T11:49:46;94718.53;;;8.97;74.61
59009;BME280;44794;42.652;23.318;2022-11-15T11:54:58;94723.81;;;9.08;74.09
59009;BME280;44794;42.652;23.318;2022-11-15T12:00:15;94707.84;;;9.14;74.44
59009;BME280;44794;42.652;23.318;2022-11-15T12:02:44;94704.66;;;9.23;74.02
59009;BME280;44794;42.652;23.318;2022-11-15T12:07:56;94690.03;;;9.09;74.09
59009;BME280;44794;42.652;23.318;2022-11-15T12:10:30;94690.13;;;9.08;74.50
59009;BME280;44794;42.652;23.318;2022-11-15T12:13:04;94681.25;;;9.12;74.41
59009;BME280;44794;42.652;23.318;2022-11-15T12:16:13;94681.03;;;9.15;74.27
59009;BME280;44794;42.652;23.318;2022-11-15T12:18:44;94680.84;;;9.18;73.88
59009;BME280;44794;42.652;23.318;2022-11-15T12:21:36;94672.00;;;9.08;74.39
59009;BME280;44794;42.652;23.318;2022-11-15T12:24:55;94671.28;;;9.18;73.82
59009;BME280;44794;42.652;23.318;2022-11-15T12:26:58;94670.44;;;9.30;73.79
59009;BME280;44794;42.652;23.318;2022-11-15T12:29:39;94657.72;;;9.40;73.73
59009;BME280;44794;42.652;23.318;2022-11-15T12:32:05;94666.00;;;9.45;73.30
59009;BME280;44794;42.652;23.318;2022-11-15T12:34:43;94663.41;;;9.45;73.43
59009;BME280;44794;42.652;23.318;2022-11-15T12:45:00;94644.72;;;9.65;72.75
59009;BME280;44794;42.652;23.318;2022-11-15T12:47:27;94644.69;;;9.77;72.76
59009;BME280;44794;42.652;23.318;2022-11-15T12:49:52;94652.16;;;9.81;72.42
59009;BME280;44794;42.652;23.318;2022-11-15T12:52:19;94648.59;;;9.82;71.88
59009;BME280;44794;42.652;23.318;2022-11-15T12:54:54;94643.63;;;9.92;71.58
59009;BME280;44794;42.652;23.318;2022-11-15T13:02:25;94629.53;;;9.83;72.14
59009;BME280;44794;42.652;23.318;2022-11-15T13:04:54;94631.31;;;9.83;72.15
59009;BME280;44794;42.652;23.318;2022-11-15T13:07:55;94630.38;;;9.84;72.12
59009;BME280;44794;42.652;23.318;2022-11-15T13:10:38;94627.25;;;9.79;71.90
59009;BME280;44794;42.652;23.318;2022-11-15T13:13:07;94623.84;;;9.78;72.27
59009;BME280;44794;42.652;23.318;2022-11-15T13:15:37;94621.88;;;9.69;72.66
59009;BME280;44794;42.652;23.318;2022-11-15T13:18:33;94618.78;;;9.77;72.48
59009;BME280;44794;42.652;23.318;2022-11-15T13:20:59;94615.75;;;9.83;72.44
59009;BME280;44794;42.652;23.318;2022-11-15T13:23:25;94617.09;;;9.88;72.09
59009;BME280;44794;42.652;23.318;2022-11-15T13:30:53;94609.72;;;9.82;71.80
59009;BME280;44794;42.652;23.318;2022-11-15T13:33:22;94597.19;;;9.76;72.32
59009;BME280;44794;42.652;23.318;2022-11-15T13:35:52;94610.47;;;9.72;72.32
59009;BME280;44794;42.652;23.318;2022-11-15T13:40:50;94603.84;;;9.68;72.73
59009;BME280;44794;42.652;23.318;2022-11-15T13:46:05;94597.31;;;9.63;73.34
59009;BME280;44794;42.652;23.318;2022-11-15T13:48:30;94599.91;;;9.63;73.30
59009;BME280;44794;42.652;23.318;2022-11-15T13:50:57;94598.88;;;9.65;73.24
59009;BME280;44794;42.652;23.318;2022-11-15T13:53:23;94603.03;;;9.68;72.70
59009;BME280;44794;42.652;23.318;2022-11-15T13:55:49;94602.75;;;9.60;73.11
59009;BME280;44794;42.652;23.318;2022-11-15T13:58:17;94597.03;;;9.55;73.52
59009;BME280;44794;42.652;23.318;2022-11-15T14:00:44;94591.66;;;9.45;73.71
59009;BME280;44794;42.652;23.318;2022-11-15T14:03:17;94585.84;;;9.42;74.02
59009;BME280;44794;42.652;23.318;2022-11-15T14:08:29;94576.97;;;9.33;75.31
59009;BME280;44794;42.652;23.318;2022-11-15T14:11:17;94583.69;;;9.36;74.45
59009;BME280;44794;42.652;23.318;2022-11-15T14:14:04;94581.84;;;9.25;74.80
59009;BME280;44794;42.652;23.318;2022-11-15T14:19:03;94583.94;;;9.08;75.94
59009;BME280;44794;42.652;23.318;2022-11-15T14:21:30;94577.63;;;8.99;76.02
59009;BME280;44794;42.652;23.318;2022-11-15T14:24:15;94570.56;;;8.89;76.65
59009;BME280;44794;42.652;23.318;2022-11-15T14:26:41;94573.06;;;9.03;76.33
59009;BME280;44794;42.652;23.318;2022-11-15T14:29:27;94571.50;;;8.88;76.83
59009;BME280;44794;42.652;23.318;2022-11-15T14:31:54;94569.34;;;8.82;77.12
59009;BME280;44794;42.652;23.318;2022-11-15T14:34:31;94570.78;;;8.74;77.35
59009;BME280;44794;42.652;23.318;2022-11-15T14:36:57;94574.31;;;8.73;77.62
59009;BME280;44794;42.652;23.318;2022-11-15T14:39:26;94572.03;;;8.68;77.78
59009;BME280;44794;42.652;23.318;2022-11-15T14:41:51;94570.78;;;8.61;78.21
59009;BME280;44794;42.652;23.318;2022-11-15T14:44:17;94571.50;;;8.51;79.05
59009;BME280;44794;42.652;23.318;2022-11-15T14:46:44;94573.63;;;8.44;79.30
59009;BME280;44794;42.652;23.318;2022-11-15T14:49:09;94564.09;;;8.32;79.89
59009;BME280;44794;42.652;23.318;2022-11-15T14:51:35;94557.38;;;8.30;80.08
59009;BME280;44794;42.652;23.318;2022-11-15T14:54:01;94559.13;;;8.17;80.27
59009;BME280;44794;42.652;23.318;2022-11-15T14:56:26;94550.25;;;8.07;81.10
59009;BME280;44794;42.652;23.318;2022-11-15T14:58:52;94547.81;;;7.92;81.77
59009;BME280;44794;42.652;23.318;2022-11-15T15:01:21;94545.09;;;7.81;82.44